Time;durP1;ratioP1;P1;durP2;ratioP2;P2;SDS_P1;SDS_P2;PMS_P1;PMS_P2;Temp;Humidity;BMP_temperature;BMP_pressure;BME280_temperature;BME280_humidity;BME280_pressure;Samples;Min_cycle;Max_cycle;Signal;HPM_P1;HPM_P2
2021/03/26 00:01:34;;;;;;;3.25;1.20;;;24.60;38.60;;;;;;5039085;28;20099;-61
2021/03/26 00:04:04;;;;;;;3.42;1.70;;;24.50;38.50;;;;;;5064217;28;20119;-61
2021/03/26 00:06:34;;;;;;;2.08;1.35;;;24.50;38.50;;;;;;5064350;28;20071;-63
2021/03/26 00:09:00;;;;;;;2.78;1.45;;;24.50;38.50;;;;;;5066672;28;20032;-62
2021/03/26 00:11:29;;;;;;;2.33;1.20;;;24.50;38.50;;;;;;5064540;28;20055;-63
2021/03/26 00:13:56;;;;;;;1.95;1.20;;;24.60;38.60;;;;;;5064758;28;20131;-61
2021/03/26 00:16:22;;;;;;;2.05;1.38;;;24.50;38.50;;;;;;5065029;28;20036;-59
2021/03/26 00:18:48;;;;;;;2.20;1.30;;;24.50;38.50;;;;;;5065347;28;20036;-61
2021/03/26 00:21:14;;;;;;;2.13;1.30;;;24.50;39.10;;;;;;5063703;28;20053;-60
2021/03/26 00:23:40;;;;;;;1.95;1.33;;;24.50;38.60;;;;;;5065580;28;20060;-60
2021/03/26 00:26:06;;;;;;;1.92;1.20;;;24.50;38.60;;;;;;5065044;28;20063;-61
2021/03/26 00:28:32;;;;;;;2.50;1.30;;;24.50;38.60;;;;;;5064150;28;20432;-61
2021/03/26 00:30:58;;;;;;;3.42;1.35;;;24.50;38.60;;;;;;5063675;28;20442;-60
2021/03/26 00:33:23;;;;;;;1.88;1.20;;;24.50;38.60;;;;;;5063412;28;20036;-61
2021/03/26 00:35:49;;;;;;;1.90;1.25;;;24.50;39.10;;;;;;5062719;28;20509;-60
2021/03/26 00:38:15;;;;;;;2.35;1.20;;;24.50;38.60;;;;;;5065676;28;20562;-62
2021/03/26 00:40:41;;;;;;;2.20;1.30;;;24.50;38.60;;;;;;5064679;28;20029;-61
2021/03/26 00:43:07;;;;;;;1.45;1.10;;;24.50;38.70;;;;;;5064728;28;20796;-60
2021/03/26 00:45:35;;;;;;;2.28;1.63;;;24.50;38.70;;;;;;5063903;28;20041;-61
2021/03/26 00:48:02;;;;;;;1.98;1.27;;;24.50;38.70;;;;;;5052577;28;20037;-60
2021/03/26 00:50:30;;;;;;;2.20;1.33;;;24.40;38.60;;;;;;5060896;28;20028;-60
2021/03/26 00:53:01;;;;;;;2.25;1.48;;;24.40;38.60;;;;;;5066330;28;20025;-61
2021/03/26 00:55:27;;;;;;;2.45;1.30;;;24.40;38.70;;;;;;5064655;28;20639;-61
2021/03/26 00:57:53;;;;;;;2.00;1.20;;;24.40;38.60;;;;;;5046302;28;20048;-62
2021/03/26 01:00:23;;;;;;;1.45;1.15;;;24.50;38.70;;;;;;5064023;28;20355;-60
2021/03/26 01:02:49;;;;;;;1.83;1.20;;;24.40;38.70;;;;;;5044644;28;20078;-62
2021/03/26 01:05:23;;;;;;;2.13;1.45;;;24.40;38.70;;;;;;5057742;28;20028;-61
2021/03/26 01:07:49;;;;;;;2.25;1.35;;;24.40;38.70;;;;;;5064310;28;20043;-59
2021/03/26 01:10:19;;;;;;;2.40;1.45;;;24.40;38.70;;;;;;5068300;28;20430;-62
2021/03/26 01:12:45;;;;;;;2.42;1.45;;;24.40;38.70;;;;;;5065253;28;20527;-63
2021/03/26 01:15:14;;;;;;;2.08;1.25;;;24.40;38.70;;;;;;5066849;28;20032;-62
2021/03/26 01:17:41;;;;;;;2.15;1.40;;;24.40;38.70;;;;;;5064595;28;20047;-61
2021/03/26 01:20:14;;;;;;;1.63;1.20;;;24.40;38.70;;;;;;5053221;28;20818;-60
2021/03/26 01:22:40;;;;;;;1.70;1.25;;;24.40;38.70;;;;;;5056597;28;20116;-60
2021/03/26 01:25:11;;;;;;;1.70;1.20;;;24.40;38.70;;;;;;5060258;28;20029;-60
2021/03/26 01:27:36;;;;;;;1.65;1.10;;;24.30;38.70;;;;;;5060517;28;20060;-61
2021/03/26 01:30:11;;;;;;;2.28;1.17;;;24.30;38.70;;;;;;5062793;28;20067;-59
2021/03/26 01:32:37;;;;;;;2.28;1.33;;;24.30;38.70;;;;;;5055000;28;20605;-63
2021/03/26 01:35:03;;;;;;;3.30;1.17;;;24.30;38.70;;;;;;5070558;28;20033;-61
2021/03/26 01:37:29;;;;;;;2.15;1.45;;;24.30;38.70;;;;;;5064036;28;20395;-60
2021/03/26 01:39:54;;;;;;;2.20;1.33;;;24.30;38.70;;;;;;5066292;28;20111;-60
2021/03/26 01:42:31;;;;;;;1.67;1.10;;;24.30;38.80;;;;;;5062844;28;20360;-60
2021/03/26 01:44:59;;;;;;;2.50;1.30;;;24.30;38.70;;;;;;5069036;28;20045;-60
2021/03/26 01:47:26;;;;;;;3.22;1.33;;;24.30;38.70;;;;;;5067836;28;20562;-61
2021/03/26 01:49:52;;;;;;;1.45;1.15;;;24.30;38.80;;;;;;5049162;28;20159;-61
2021/03/26 01:52:18;;;;;;;1.90;1.40;;;24.30;38.80;;;;;;5072456;28;20249;-61
2021/03/26 01:54:44;;;;;;;1.48;1.00;;;24.30;38.80;;;;;;5075361;28;20032;-59
2021/03/26 01:57:10;;;;;;;1.73;1.15;;;24.30;38.80;;;;;;5067490;28;20055;-62
2021/03/26 01:59:36;;;;;;;1.45;1.00;;;24.30;38.80;;;;;;5069541;28;20027;-61
2021/03/26 02:02:13;;;;;;;2.15;1.20;;;24.30;38.80;;;;;;5071531;28;20032;-60
2021/03/26 02:04:44;;;;;;;1.90;1.10;;;24.30;38.80;;;;;;5068221;28;20081;-60
2021/03/26 02:07:10;;;;;;;2.00;1.30;;;24.30;38.80;;;;;;5067358;28;20079;-60
2021/03/26 02:09:38;;;;;;;1.88;1.27;;;24.30;38.80;;;;;;5067121;28;20494;-61
2021/03/26 02:12:21;;;;;;;1.67;1.13;;;24.30;38.80;;;;;;5068173;28;20025;-62
2021/03/26 02:15:00;;;;;;;1.77;1.20;;;24.20;38.80;;;;;;5054988;28;20274;-63
2021/03/26 02:17:32;;;;;;;2.10;1.10;;;24.20;38.80;;;;;;5058473;28;20036;-61
2021/03/26 02:20:09;;;;;;;1.88;1.20;;;24.30;38.90;;;;;;5047062;28;20059;-62
2021/03/26 02:22:37;;;;;;;1.70;1.13;;;24.30;38.80;;;;;;5065875;28;20498;-62
2021/03/26 02:25:11;;;;;;;1.95;1.30;;;24.20;39.30;;;;;;5068065;28;20025;-60
2021/03/26 02:27:38;;;;;;;1.50;1.08;;;24.20;38.80;;;;;;5067315;28;20033;-60
2021/03/26 02:30:15;;;;;;;1.63;1.20;;;24.20;38.80;;;;;;5068417;28;20036;-61
2021/03/26 02:32:42;;;;;;;2.20;1.25;;;24.20;38.80;;;;;;5047794;28;20036;-61
2021/03/26 02:35:13;;;;;;;1.58;1.10;;;24.20;39.40;;;;;;5059728;28;20041;-61
2021/03/26 02:37:52;;;;;;;1.65;1.10;;;24.20;38.80;;;;;;5067429;28;20040;-60
2021/03/26 02:40:38;;;;;;;1.85;1.20;;;24.20;38.80;;;;;;5055797;28;20036;-59
2021/03/26 02:43:25;;;;;;;1.90;1.30;;;24.20;38.80;;;;;;5047734;28;20758;-60
2021/03/26 02:46:16;;;;;;;1.98;1.27;;;24.20;38.80;;;;;;5046245;28;20032;-61
2021/03/26 02:48:48;;;;;;;1.77;1.20;;;24.20;38.80;;;;;;5049370;28;20036;-59
2021/03/26 02:51:36;;;;;;;1.65;1.13;;;24.20;38.80;;;;;;5066714;28;20028;-62
2021/03/26 02:54:08;;;;;;;1.92;1.30;;;24.20;38.80;;;;;;5044530;28;20136;-61
2021/03/26 02:56:43;;;;;;;1.58;1.25;;;24.20;38.90;;;;;;5067312;28;20103;-61
2021/03/26 02:59:13;;;;;;;2.50;1.40;;;24.10;38.80;;;;;;5059287;28;20103;-62
2021/03/26 03:01:47;;;;;;;1.35;1.00;;;24.10;38.90;;;;;;5052814;28;20033;-60
2021/03/26 03:04:40;;;;;;;1.88;1.25;;;24.10;38.90;;;;;;5066269;28;20728;-60
2021/03/26 03:07:26;;;;;;;1.80;1.20;;;24.20;38.90;;;;;;5039871;28;20167;-61
2021/03/26 03:09:58;;;;;;;1.98;1.20;;;24.10;38.80;;;;;;5063955;28;20404;-61
2021/03/26 03:12:32;;;;;;;1.52;1.10;;;24.10;38.90;;;;;;5052718;28;20590;-60
2021/03/26 03:15:21;;;;;;;1.85;1.05;;;24.10;38.90;;;;;;5065161;28;20470;-60
2021/03/26 03:17:50;;;;;;;1.77;1.25;;;24.10;38.90;;;;;;5054612;28;20917;-61
2021/03/26 03:20:19;;;;;;;1.60;1.10;;;24.10;38.90;;;;;;5065165;28;20032;-60
2021/03/26 03:23:02;;;;;;;1.88;1.13;;;24.10;38.90;;;;;;5067520;28;20179;-62
2021/03/26 03:25:28;;;;;;;1.90;1.20;;;24.10;38.90;;;;;;5066592;28;20055;-60
2021/03/26 03:28:19;;;;;;;1.85;1.20;;;24.10;38.90;;;;;;5065713;28;20032;-63
2021/03/26 03:31:09;;;;;;;1.90;1.10;;;24.10;38.90;;;;;;5064356;28;20037;-63
2021/03/26 03:33:59;;;;;;;1.90;1.17;;;24.10;38.90;;;;;;5065860;28;20582;-62
2021/03/26 03:36:33;;;;;;;1.73;1.13;;;24.10;38.90;;;;;;5063209;28;20119;-63
2021/03/26 03:39:16;;;;;;;1.92;1.08;;;24.10;38.90;;;;;;5066306;28;20098;-60
2021/03/26 03:42:07;;;;;;;1.70;1.20;;;24.10;38.90;;;;;;5064912;28;20096;-60
2021/03/26 03:44:50;;;;;;;1.90;1.10;;;24.10;38.90;;;;;;5064459;28;20029;-60
2021/03/26 03:47:37;;;;;;;2.10;1.20;;;24.10;38.90;;;;;;5066232;28;20027;-61
2021/03/26 03:50:13;;;;;;;2.25;1.13;;;24.10;39.00;;;;;;5053268;28;20028;-61
2021/03/26 03:52:42;;;;;;;2.28;1.20;;;24.10;39.00;;;;;;5056557;28;20041;-63
2021/03/26 03:55:14;;;;;;;;;;;24.10;38.90;;;;;;5064225;28;20467;-61
2021/03/26 03:57:47;;;;;;;2.20;1.20;;;24.10;38.90;;;;;;5062298;28;19912;-60
2021/03/26 04:00:23;;;;;;;1.30;1.10;;;24.00;38.90;;;;;;5066303;28;20028;-61
2021/03/26 04:03:10;;;;;;;1.33;0.98;;;24.00;38.90;;;;;;5077578;28;20112;-62
2021/03/26 04:05:48;;;;;;;1.50;1.13;;;24.00;38.90;;;;;;5065344;28;20356;-63
2021/03/26 04:08:34;;;;;;;2.00;1.25;;;24.00;39.40;;;;;;5066415;28;20101;-61
2021/03/26 04:11:15;;;;;;;1.45;1.10;;;24.00;38.90;;;;;;5065687;28;20036;-60
2021/03/26 04:13:48;;;;;;;1.95;1.13;;;24.00;39.00;;;;;;5051954;28;20028;-60
2021/03/26 04:16:19;;;;;;;1.90;1.30;;;24.00;39.50;;;;;;5062965;28;20044;-61
2021/03/26 04:18:51;;;;;;;1.90;1.10;;;24.00;39.00;;;;;;5056058;28;20074;-60
2021/03/26 04:21:24;;;;;;;1.92;1.20;;;24.00;39.00;;;;;;5063261;28;20066;-60
2021/03/26 04:23:58;;;;;;;1.67;0.95;;;24.00;39.00;;;;;;5062595;28;20123;-61
2021/03/26 04:26:37;;;;;;;1.30;1.00;;;24.00;39.00;;;;;;5062937;28;20027;-61
2021/03/26 04:29:18;;;;;;;1.42;1.08;;;24.00;39.00;;;;;;5063580;28;20442;-60
2021/03/26 04:32:18;;;;;;;1.70;1.20;;;24.00;39.00;;;;;;5063908;28;20049;-60
2021/03/26 04:34:45;;;;;;;1.40;1.00;;;24.00;39.00;;;;;;5009281;28;20064;-63
2021/03/26 04:37:42;;;;;;;1.87;1.00;;;24.00;39.00;;;;;;5063281;28;20028;-62
2021/03/26 04:40:28;;;;;;;1.77;1.10;;;24.00;38.90;;;;;;5048618;28;20107;-61
2021/03/26 04:43:27;;;;;;;1.30;0.95;;;24.00;39.00;;;;;;5044801;28;20090;-60
2021/03/26 04:45:58;;;;;;;1.58;1.02;;;24.00;39.00;;;;;;5042896;28;20128;-62
2021/03/26 04:48:36;;;;;;;1.73;1.20;;;24.00;39.00;;;;;;5058846;28;20040;-62
2021/03/26 04:51:28;;;;;;;1.55;1.10;;;23.90;39.00;;;;;;5059843;28;20166;-60
2021/03/26 04:54:02;;;;;;;1.70;1.10;;;23.90;39.00;;;;;;5063300;28;20379;-60
2021/03/26 04:56:36;;;;;;;1.70;1.20;;;23.90;39.00;;;;;;5063989;28;20040;-62
2021/03/26 04:59:05;;;;;;;1.80;1.10;;;23.90;39.00;;;;;;5064626;28;20036;-61
2021/03/26 05:01:31;;;;;;;1.77;1.15;;;23.90;39.00;;;;;;5033543;28;20419;-61
2021/03/26 05:04:29;;;;;;;1.70;1.00;;;23.90;39.00;;;;;;5058644;28;20486;-60
2021/03/26 05:07:11;;;;;;;1.63;0.98;;;23.90;39.00;;;;;;5034143;28;20075;-61
2021/03/26 05:09:44;;;;;;;1.25;1.00;;;23.90;39.00;;;;;;5064435;28;20135;-61
2021/03/26 05:12:20;;;;;;;1.38;0.90;;;23.90;39.00;;;;;;5063198;28;20639;-61
2021/03/26 05:14:58;;;;;;;1.33;0.88;;;23.90;38.90;;;;;;5056709;28;20140;-60
2021/03/26 05:17:38;;;;;;;1.50;1.10;;;23.90;39.00;;;;;;5062943;28;20025;-60
2021/03/26 05:20:41;;;;;;;1.42;1.00;;;23.90;39.00;;;;;;5062024;28;20029;-62
2021/03/26 05:23:19;;;;;;;1.13;0.93;;;23.90;39.00;;;;;;5061197;28;20052;-63
2021/03/26 05:25:50;;;;;;;1.55;1.00;;;23.90;39.00;;;;;;5067523;28;20107;-63
2021/03/26 05:28:20;;;;;;;1.45;1.10;;;23.90;39.50;;;;;;5064070;28;20032;-61
2021/03/26 05:30:47;;;;;;;1.38;1.00;;;23.90;39.00;;;;;;5059857;28;20068;-62
2021/03/26 05:33:35;;;;;;;1.00;0.90;;;23.90;39.00;;;;;;5060990;28;20028;-61
2021/03/26 05:36:25;;;;;;;1.73;1.05;;;23.90;39.00;;;;;;5060806;28;20040;-60
2021/03/26 05:39:16;;;;;;;1.38;1.00;;;23.90;39.00;;;;;;5047365;28;20040;-60
2021/03/26 05:41:50;;;;;;;1.67;1.10;;;23.90;39.00;;;;;;5055857;28;20415;-60
2021/03/26 05:44:41;;;;;;;2.20;1.00;;;23.90;39.00;;;;;;5052873;28;20531;-60
2021/03/26 05:47:29;;;;;;;1.83;1.20;;;23.90;39.00;;;;;;5042872;28;20115;-62
2021/03/26 05:50:36;;;;;;;1.40;1.02;;;23.90;39.00;;;;;;5064535;28;20045;-61
2021/03/26 05:53:37;;;;;;;1.73;1.13;;;23.90;39.00;;;;;;5050147;28;20105;-62
2021/03/26 05:56:25;;;;;;;1.45;1.17;;;23.90;38.90;;;;;;5058558;28;20029;-62
2021/03/26 05:59:21;;;;;;;1.17;1.00;;;23.90;38.90;;;;;;5068196;28;20134;-61
2021/03/26 06:01:53;;;;;;;1.80;1.20;;;23.90;38.80;;;;;;5041887;28;20048;-62
2021/03/26 06:04:43;;;;;;;1.85;1.10;;;23.80;38.80;;;;;;5070988;28;20039;-60
2021/03/26 06:07:30;;;;;;;1.65;1.10;;;23.80;38.70;;;;;;5075305;28;20032;-60
2021/03/26 06:10:27;;;;;;;1.90;1.13;;;23.80;38.60;;;;;;5063820;28;20086;-63
2021/03/26 06:13:20;;;;;;;1.52;1.10;;;23.80;38.60;;;;;;5069634;28;20032;-60
2021/03/26 06:16:04;;;;;;;2.63;1.30;;;23.80;38.50;;;;;;5072977;28;20114;-61
2021/03/26 06:18:51;;;;;;;1.60;1.20;;;23.80;38.50;;;;;;5075877;28;20043;-62
2021/03/26 06:21:18;;;;;;;1.77;1.15;;;23.80;38.50;;;;;;5063269;28;20565;-60
2021/03/26 06:24:02;;;;;;;2.45;1.33;;;23.80;38.50;;;;;;5053947;28;20074;-60
2021/03/26 06:26:40;;;;;;;2.85;1.48;;;23.80;38.50;;;;;;5047086;28;20418;-61
2021/03/26 06:29:34;;;;;;;2.58;1.50;;;23.80;38.50;;;;;;5064247;28;20143;-60
2021/03/26 06:32:29;;;;;;;2.90;1.48;;;23.80;38.40;;;;;;5077891;28;20051;-60
2021/03/26 06:35:07;;;;;;;1.90;1.30;;;23.80;38.40;;;;;;5072756;28;20040;-60
2021/03/26 06:37:58;;;;;;;1.83;1.23;;;23.80;38.40;;;;;;5068121;28;20058;-61
2021/03/26 06:40:59;;;;;;;2.88;1.40;;;23.80;38.30;;;;;;5060334;28;20041;-61
2021/03/26 06:43:47;;;;;;;2.08;1.38;;;23.80;38.30;;;;;;5051853;28;20078;-60
2021/03/26 06:46:34;;;;;;;2.05;1.40;;;23.80;38.30;;;;;;5077300;28;20043;-61
2021/03/26 06:49:25;;;;;;;2.35;1.48;;;23.80;38.40;;;;;;5066687;28;20516;-60
2021/03/26 06:52:29;;;;;;;3.30;1.65;;;23.80;38.30;;;;;;5053742;28;20067;-61
2021/03/26 06:55:19;;;;;;;2.75;1.65;;;23.80;38.30;;;;;;5033623;28;20520;-62
2021/03/26 06:57:59;;;;;;;2.38;1.60;;;23.70;38.40;;;;;;5080147;28;20028;-62
2021/03/26 07:00:31;;;;;;;2.58;1.70;;;23.80;38.50;;;;;;5057254;28;20453;-62
2021/03/26 07:03:34;;;;;;;2.95;1.60;;;23.80;38.50;;;;;;5053721;28;20089;-63
2021/03/26 07:06:23;;;;;;;3.05;1.58;;;23.80;38.60;;;;;;5067892;28;20059;-62
2021/03/26 07:09:08;;;;;;;3.20;1.70;;;23.80;38.60;;;;;;5028624;28;20044;-61
2021/03/26 07:11:52;;;;;;;3.65;1.65;;;23.90;38.60;;;;;;5081417;28;20108;-62
2021/03/26 07:14:39;;;;;;;3.35;1.90;;;23.90;38.50;;;;;;5050883;28;20029;-61
2021/03/26 07:17:32;;;;;;;2.63;1.45;;;23.90;38.60;;;;;;5068485;28;20120;-61
2021/03/26 07:20:16;;;;;;;2.67;1.70;;;23.90;38.60;;;;;;5073051;28;20091;-62
2021/03/26 07:23:00;;;;;;;2.70;1.60;;;24.00;38.60;;;;;;5065923;28;20119;-61
2021/03/26 07:25:56;;;;;;;2.88;1.80;;;24.00;38.60;;;;;;5070428;28;20028;-61
2021/03/26 07:28:36;;;;;;;3.25;1.50;;;24.00;38.60;;;;;;5064425;28;20475;-62
2021/03/26 07:31:33;;;;;;;2.70;1.63;;;24.10;38.70;;;;;;5061875;28;20483;-64
2021/03/26 07:34:25;;;;;;;3.85;1.90;;;24.10;38.70;;;;;;5047234;28;20299;-60
2021/03/26 07:37:21;;;;;;;2.67;1.70;;;24.10;38.70;;;;;;5059880;28;20112;-60
2021/03/26 07:40:18;;;;;;;2.30;1.35;;;24.10;38.70;;;;;;5064182;28;20412;-61
2021/03/26 07:43:10;;;;;;;2.88;1.70;;;24.10;38.70;;;;;;5060108;28;20396;-60
2021/03/26 07:45:42;;;;;;;3.40;1.85;;;24.20;38.70;;;;;;5058164;28;20532;-61
2021/03/26 07:48:33;;;;;;;2.85;1.80;;;24.20;38.60;;;;;;5063867;28;20072;-60
2021/03/26 07:51:12;;;;;;;2.80;1.60;;;24.30;38.70;;;;;;5067274;28;20020;-62
2021/03/26 07:53:56;;;;;;;2.85;1.70;;;24.30;38.70;;;;;;5046654;28;20087;-63
2021/03/26 07:56:35;;;;;;;2.90;1.70;;;24.30;38.60;;;;;;5064107;28;20357;-61
2021/03/26 07:59:38;;;;;;;3.20;1.60;;;24.30;38.60;;;;;;5053966;28;20043;-61
2021/03/26 08:02:39;;;;;;;2.83;1.50;;;24.30;38.60;;;;;;5059885;28;20094;-63
2021/03/26 08:05:44;;;;;;;3.40;1.80;;;24.40;38.60;;;;;;5063437;28;20250;-63
2021/03/26 08:08:12;;;;;;;2.38;1.60;;;24.40;38.60;;;;;;5064040;28;20054;-60
2021/03/26 08:10:53;;;;;;;2.67;1.58;;;24.40;38.60;;;;;;5039610;28;20166;-60
2021/03/26 08:13:57;;;;;;;2.65;1.52;;;24.40;38.60;;;;;;5062273;28;20039;-59
2021/03/26 08:16:59;;;;;;;2.38;1.40;;;24.40;38.60;;;;;;5058795;28;20036;-63
2021/03/26 08:20:04;;;;;;;3.03;1.40;;;24.50;38.70;;;;;;5062405;28;20103;-61
2021/03/26 08:22:57;;;;;;;2.47;1.50;;;24.50;38.70;;;;;;5051014;28;20456;-63
2021/03/26 08:25:38;;;;;;;2.33;1.50;;;24.50;38.70;;;;;;5061342;28;20471;-59
2021/03/26 08:28:25;;;;;;;2.38;1.52;;;24.60;38.80;;;;;;5045283;28;20483;-61
2021/03/26 08:31:14;;;;;;;2.70;1.42;;;24.60;39.30;;;;;;5056377;28;20517;-59
2021/03/26 08:34:10;;;;;;;2.70;1.50;;;24.60;38.80;;;;;;5063478;28;20063;-59
2021/03/26 08:36:59;;;;;;;2.78;1.50;;;24.60;38.70;;;;;;5055817;28;20045;-62
2021/03/26 08:39:28;;;;;;;2.60;1.50;;;24.60;38.70;;;;;;5042963;28;20036;-61
2021/03/26 08:42:09;;;;;;;2.50;1.38;;;24.70;38.80;;;;;;5044462;28;20064;-62
2021/03/26 08:44:36;;;;;;;4.95;1.88;;;24.70;38.70;;;;;;5059500;28;20356;-61
2021/03/26 08:47:09;;;;;;;2.75;1.65;;;24.70;38.80;;;;;;5062947;28;20369;-60
2021/03/26 08:50:10;;;;;;;2.78;1.45;;;24.70;38.80;;;;;;5065476;28;20028;-61
2021/03/26 08:53:36;;;;;;;2.38;1.45;;;24.70;38.80;;;;;;5072988;28;20027;-61
2021/03/26 08:56:21;;;;;;;2.40;1.40;;;24.70;38.80;;;;;;4957331;28;20134;-60
2021/03/26 08:59:32;;;;;;;2.72;1.42;;;24.80;39.40;;;;;;4970639;28;20042;-61
2021/03/26 09:02:06;;;;;;;2.13;1.23;;;24.80;38.90;;;;;;5038885;28;20415;-59
2021/03/26 09:05:22;;;;;;;2.25;1.42;;;24.80;38.90;;;;;;5065226;28;20024;-61
2021/03/26 09:08:18;;;;;;;2.60;1.50;;;24.80;38.90;;;;;;4998430;28;20129;-57
2021/03/26 09:11:20;;;;;;;2.67;1.50;;;24.80;38.90;;;;;;5001795;28;20137;-57
2021/03/26 09:14:05;;;;;;;2.33;1.33;;;24.80;38.90;;;;;;5061568;28;20139;-58
2021/03/26 09:16:31;;;;;;;2.40;1.30;;;24.90;38.90;;;;;;5067679;28;20115;-60
2021/03/26 09:19:07;;;;;;;3.03;1.50;;;24.90;38.90;;;;;;5068281;28;20029;-62
2021/03/26 09:21:54;;;;;;;2.78;1.20;;;24.90;38.90;;;;;;5077740;28;20041;-62
2021/03/26 09:24:51;;;;;;;2.22;1.30;;;25.00;39.00;;;;;;5068207;28;20024;-61
2021/03/26 09:27:20;;;;;;;2.08;1.33;;;25.00;38.90;;;;;;5078684;28;20040;-61
2021/03/26 09:30:00;;;;;;;3.22;1.27;;;25.00;38.90;;;;;;5067983;28;20470;-64
2021/03/26 09:32:36;;;;;;;1.50;1.15;;;25.00;39.00;;;;;;5065100;28;20115;-61
2021/03/26 09:35:13;;;;;;;1.80;1.15;;;25.00;38.90;;;;;;5064128;28;20115;-58
2021/03/26 09:37:51;;;;;;;1.75;1.23;;;25.10;39.00;;;;;;5065415;28;20063;-64
2021/03/26 09:40:57;;;;;;;1.95;1.23;;;25.00;38.90;;;;;;5070832;28;20024;-62
2021/03/26 09:43:29;;;;;;;1.90;1.20;;;25.10;39.00;;;;;;5064007;28;20032;-61
2021/03/26 09:46:07;;;;;;;2.42;1.40;;;25.10;39.10;;;;;;5064478;28;20027;-62
2021/03/26 09:48:56;;;;;;;1.92;1.20;;;25.10;39.10;;;;;;5066158;28;20032;-59
2021/03/26 09:51:30;;;;;;;2.28;1.40;;;25.10;39.10;;;;;;5062221;28;20561;-61
2021/03/26 09:54:10;;;;;;;2.15;1.40;;;25.20;39.00;;;;;;5064979;28;20029;-60
2021/03/26 09:57:06;;;;;;;2.17;1.33;;;25.20;39.00;;;;;;5064155;28;20043;-61
2021/03/26 09:59:56;;;;;;;1.80;1.20;;;25.20;39.50;;;;;;5082307;28;20636;-61
2021/03/26 10:02:41;;;;;;;2.55;1.25;;;25.20;39.00;;;;;;5064645;28;20037;-62
2021/03/26 10:05:25;;;;;;;2.30;1.40;;;25.30;39.10;;;;;;5065367;28;20031;-62
2021/03/26 10:08:07;;;;;;;3.50;2.10;;;25.20;39.10;;;;;;5068670;28;20061;-60
2021/03/26 10:13:17;;;;;;;3.20;1.80;;;25.30;37.70;;;;;;5077903;28;20513;-61
2021/03/26 10:15:59;;;;;;;3.03;2.05;;;25.30;38.10;;;;;;5071474;28;20135;-62
2021/03/26 10:18:32;;;;;;;2.50;1.70;;;25.30;37.50;;;;;;5073896;28;20425;-62
2021/03/26 10:21:01;;;;;;;3.35;2.20;;;25.40;38.00;;;;;;5065827;28;20048;-61
2021/03/26 10:23:31;;;;;;;3.88;2.70;;;25.40;37.30;;;;;;5061854;28;20052;-61
2021/03/26 10:26:38;;;;;;;3.63;1.90;;;25.40;36.80;;;;;;5046688;28;20068;-59
2021/03/26 10:29:30;;;;;;;4.00;2.30;;;25.40;37.70;;;;;;5068441;28;20048;-61
2021/03/26 10:32:07;;;;;;;3.67;2.40;;;25.40;37.60;;;;;;5042752;28;20039;-62
2021/03/26 10:34:36;;;;;;;4.55;2.10;;;25.40;36.80;;;;;;5061571;28;20032;-62
2021/03/26 10:37:20;;;;;;;3.30;1.67;;;25.40;37.50;;;;;;5054825;28;20036;-61
2021/03/26 10:39:52;;;;;;;3.10;1.98;;;25.40;37.70;;;;;;5061090;28;20029;-61
2021/03/26 10:42:33;;;;;;;3.00;1.83;;;25.40;37.20;;;;;;5070001;28;20036;-60
2021/03/26 10:45:32;;;;;;;3.90;2.00;;;25.40;37.80;;;;;;5072483;28;20028;-59
2021/03/26 10:48:21;;;;;;;4.35;3.05;;;25.40;37.50;;;;;;5068261;28;20039;-60
2021/03/26 10:51:03;;;;;;;3.38;2.20;;;25.40;36.10;;;;;;5060626;28;20032;-60
2021/03/26 10:53:35;;;;;;;3.28;2.20;;;25.40;36.70;;;;;;5068283;28;20777;-62
2021/03/26 10:56:10;;;;;;;5.90;3.33;;;25.40;36.80;;;;;;5066760;28;20029;-63
2021/03/26 10:58:42;;;;;;;5.10;3.08;;;25.40;35.60;;;;;;5067648;28;20119;-64
2021/03/26 11:01:14;;;;;;;3.88;2.80;;;25.40;34.40;;;;;;5065464;28;20037;-64
2021/03/26 11:03:52;;;;;;;3.65;2.30;;;25.40;35.10;;;;;;5049381;28;20028;-63
2021/03/26 11:06:52;;;;;;;5.15;3.00;;;25.40;35.90;;;;;;5067751;28;20043;-62
2021/03/26 11:09:26;;;;;;;4.90;2.40;;;25.40;35.20;;;;;;5052712;28;20072;-65
2021/03/26 11:12:05;;;;;;;6.15;3.40;;;25.40;36.10;;;;;;5056981;28;20050;-61
2021/03/26 11:14:52;;;;;;;6.78;5.40;;;25.30;34.30;;;;;;5072165;28;20113;-60
2021/03/26 11:17:55;;;;;;;5.03;4.07;;;25.30;31.50;;;;;;5077980;28;20074;-53
2021/03/26 11:20:29;;;;;;;4.78;3.50;;;25.30;32.00;;;;;;5072598;28;20043;-62
2021/03/26 11:23:12;;;;;;;6.15;3.22;;;25.30;33.40;;;;;;5074917;28;20032;-61
2021/03/26 11:25:47;;;;;;;4.30;2.85;;;25.30;32.80;;;;;;5054783;28;20036;-61
2021/03/26 11:28:22;;;;;;;4.47;2.50;;;25.30;34.80;;;;;;5069345;28;20025;-62
2021/03/26 11:30:50;;;;;;;4.28;2.80;;;25.30;34.70;;;;;;5066382;28;20119;-61
2021/03/26 11:33:31;;;;;;;3.83;2.40;;;25.30;34.40;;;;;;5066893;28;20067;-62
2021/03/26 11:35:58;;;;;;;4.40;3.00;;;25.30;34.50;;;;;;5060873;28;20290;-61
2021/03/26 11:38:28;;;;;;;4.70;2.92;;;25.30;33.90;;;;;;5065987;28;20043;-61
2021/03/26 11:41:13;;;;;;;4.85;3.42;;;25.30;33.90;;;;;;5078702;28;20517;-61
2021/03/26 11:43:43;;;;;;;4.82;3.05;;;25.30;33.30;;;;;;5074128;28;20090;-61
2021/03/26 11:46:23;;;;;;;5.15;3.08;;;25.40;32.70;;;;;;5070130;28;20032;-59
2021/03/26 11:48:55;;;;;;;4.07;2.55;;;25.30;33.40;;;;;;5076425;28;20020;-61
2021/03/26 11:51:39;;;;;;;3.70;2.45;;;25.30;33.30;;;;;;5072075;28;20558;-60
2021/03/26 11:54:14;;;;;;;3.95;2.45;;;25.30;33.90;;;;;;5074594;28;20498;-63
2021/03/26 11:57:14;;;;;;;3.10;2.38;;;25.30;34.00;;;;;;5047570;28;20032;-61
2021/03/26 12:00:19;;;;;;;4.07;2.60;;;25.30;33.90;;;;;;5059617;28;20048;-62
2021/03/26 12:02:56;;;;;;;5.03;3.35;;;25.40;30.40;;;;;;5013997;28;20048;-68
2021/03/26 12:05:39;;;;;;;5.00;3.05;;;25.30;29.20;;;;;;5068556;28;20035;-60
2021/03/26 12:08:11;;;;;;;4.53;2.83;;;25.30;30.20;;;;;;5048505;28;20127;-62
2021/03/26 12:10:58;;;;;;;4.80;2.40;;;25.30;31.90;;;;;;5068795;28;20735;-61
2021/03/26 12:13:30;;;;;;;5.18;2.70;;;25.30;32.80;;;;;;5058297;28;20029;-63
2021/03/26 12:16:01;;;;;;;4.70;3.05;;;25.30;30.20;;;;;;5056075;28;20582;-61
2021/03/26 12:18:49;;;;;;;3.88;2.45;;;25.30;30.20;;;;;;5064098;28;20031;-63
2021/03/26 12:21:41;;;;;;;3.28;1.80;;;25.30;31.70;;;;;;5062578;28;20048;-62
2021/03/26 12:24:21;;;;;;;2.42;1.70;;;25.30;32.90;;;;;;5077859;28;20459;-59
2021/03/26 12:27:02;;;;;;;2.63;1.65;;;25.40;33.30;;;;;;5069730;28;20521;-59
2021/03/26 12:29:51;;;;;;;4.20;1.77;;;25.40;33.60;;;;;;5065829;28;20055;-61
2021/03/26 12:32:35;;;;;;;;;;;25.40;33.80;;;;;;5061296;28;20035;-64
2021/03/26 12:35:13;;;;;;;2.60;1.55;;;25.40;33.90;;;;;;5053510;28;19970;-62
2021/03/26 12:38:23;;;;;;;3.67;1.73;;;25.40;34.20;;;;;;5044391;28;20212;-63
2021/03/26 12:41:05;;;;;;;3.70;1.52;;;25.40;34.10;;;;;;5052364;28;20043;-61
2021/03/26 12:43:42;;;;;;;3.00;1.60;;;25.50;34.40;;;;;;5060523;28;20633;-61
2021/03/26 12:46:10;;;;;;;2.85;1.58;;;25.40;34.30;;;;;;5068840;28;20036;-62
2021/03/26 12:49:06;;;;;;;2.65;1.30;;;25.50;34.50;;;;;;5066026;28;20445;-62
2021/03/26 12:51:39;;;;;;;2.38;1.27;;;25.50;34.80;;;;;;5027903;28;20113;-62
2021/03/26 12:54:16;;;;;;;3.10;1.42;;;25.50;34.80;;;;;;5047704;28;20031;-62
2021/03/26 12:57:25;;;;;;;2.67;1.50;;;25.50;34.80;;;;;;5061146;28;20098;-60
2021/03/26 13:00:11;;;;;;;2.13;1.40;;;25.50;34.90;;;;;;5058673;28;20046;-62
2021/03/26 13:02:51;;;;;;;1.90;1.20;;;25.50;35.10;;;;;;5057722;28;20462;-61
2021/03/26 13:05:29;;;;;;;1.98;1.20;;;25.60;35.20;;;;;;5065804;28;20051;-65
2021/03/26 13:08:14;;;;;;;1.70;1.20;;;25.50;35.30;;;;;;5062145;28;20429;-63
2021/03/26 13:10:52;;;;;;;2.00;1.20;;;25.50;35.30;;;;;;5056781;28;20463;-64
2021/03/26 13:13:31;;;;;;;1.92;1.17;;;25.50;35.30;;;;;;5061983;28;20429;-62
2021/03/26 13:16:32;;;;;;;1.95;1.20;;;25.40;35.30;;;;;;5060244;28;20040;-60
2021/03/26 13:19:04;;;;;;;1.45;1.10;;;25.40;35.20;;;;;;5041352;28;20044;-61
2021/03/26 13:21:48;;;;;;;1.40;0.98;;;25.50;35.70;;;;;;5071045;28;20377;-62
2021/03/26 13:24:25;;;;;;;1.60;1.00;;;25.50;36.00;;;;;;5058910;28;20387;-60
2021/03/26 13:27:20;;;;;;;0.98;0.80;;;25.40;36.00;;;;;;5062921;28;20028;-61
2021/03/26 13:29:58;;;;;;;1.45;1.08;;;25.40;36.20;;;;;;5061964;28;20044;-61
2021/03/26 13:32:35;;;;;;;1.38;1.00;;;25.40;36.30;;;;;;5043134;28;20045;-62
2021/03/26 13:35:04;;;;;;;2.00;1.20;;;25.40;36.30;;;;;;5061962;28;20522;-62
2021/03/26 13:37:35;;;;;;;1.33;1.00;;;25.40;36.30;;;;;;5059018;28;20024;-62
2021/03/26 13:40:13;;;;;;;1.33;0.95;;;25.40;36.40;;;;;;5059330;28;20075;-62
2021/03/26 13:42:52;;;;;;;1.92;1.08;;;25.40;36.50;;;;;;5061164;28;20052;-62
2021/03/26 13:45:24;;;;;;;1.90;1.00;;;25.40;36.60;;;;;;5061317;28;20055;-63
2021/03/26 13:47:52;;;;;;;1.48;1.00;;;25.40;36.60;;;;;;5071840;28;20059;-61
2021/03/26 13:50:21;;;;;;;1.38;1.08;;;25.40;36.70;;;;;;5062202;28;20071;-62
2021/03/26 13:53:02;;;;;;;;;;;25.40;36.70;;;;;;5064430;28;20069;-61
2021/03/26 13:55:28;;;;;;;1.30;0.93;;;25.40;36.70;;;;;;5063517;28;20375;-63
2021/03/26 13:58:19;;;;;;;1.50;0.93;;;25.40;36.80;;;;;;5073850;28;20124;-63